Time;durP1;ratioP1;P1;durP2;ratioP2;P2;SDS_P1;SDS_P2;PMS_P1;PMS_P2;Temp;Humidity;BMP_temperature;BMP_pressure;BME280_temperature;BME280_humidity;BME280_pressure;Samples;Min_cycle;Max_cycle;Signal;HPM_P1;HPM_P2
2022/01/09 00:00:15;;;;;;;4.63;4.10;;;;;;;5.28;97.99;98736.72;5057170;28;20040;-63
2022/01/09 00:02:41;;;;;;;6.77;4.70;;;;;;;5.29;97.99;98748.06;5060971;28;20063;-63
2022/01/09 00:05:08;;;;;;;5.53;4.90;;;;;;;5.31;98.41;98758.41;5067025;28;20071;-63
2022/01/09 00:07:34;;;;;;;5.93;5.37;;;;;;;5.32;98.25;98766.09;5059334;28;20392;-63
2022/01/09 00:09:59;;;;;;;6.50;5.70;;;;;;;5.33;98.22;98772.19;5057737;28;20115;-63
2022/01/09 00:12:25;;;;;;;10.90;6.00;;;;;;;5.34;98.46;98776.44;5066018;28;20071;-63
2022/01/09 00:14:51;;;;;;;7.83;6.13;;;;;;;5.34;98.68;98794.88;5062671;28;20507;-64
2022/01/09 00:17:16;;;;;;;7.90;6.03;;;;;;;5.36;98.67;98795.50;5054384;28;20477;-63
2022/01/09 00:19:42;;;;;;;7.10;6.40;;;;;;;5.38;98.69;98807.47;5058198;28;20035;-63
2022/01/09 00:22:07;;;;;;;8.43;6.30;;;;;;;5.39;98.60;98821.44;5063993;28;20107;-63
2022/01/09 00:24:33;;;;;;;8.67;5.30;;;;;;;5.38;98.77;98812.72;5063132;28;20447;-63
2022/01/09 00:26:58;;;;;;;7.53;4.40;;;;;;;5.41;98.60;98822.06;5057991;28;20143;-64
2022/01/09 00:29:24;;;;;;;8.90;3.10;;;;;;;5.41;98.35;98838.66;5061162;28;20103;-63
2022/01/09 00:31:49;;;;;;;10.97;3.20;;;;;;;5.47;97.61;98845.00;5061942;28;20052;-63
2022/01/09 00:34:14;;;;;;;11.83;3.40;;;;;;;5.46;97.40;98849.44;5058436;28;20058;-63
2022/01/09 00:36:39;;;;;;;14.33;3.13;;;;;;;5.49;97.37;98861.41;5057737;28;20416;-63
2022/01/09 00:39:05;;;;;;;20.87;3.47;;;;;;;5.52;97.05;98863.72;5065193;28;20387;-63
2022/01/09 00:41:30;;;;;;;17.67;3.43;;;;;;;5.49;97.01;98877.22;5057102;28;20028;-63
2022/01/09 00:43:55;;;;;;;23.90;4.43;;;;;;;5.48;96.67;98875.59;5056308;28;20025;-63
2022/01/09 00:46:20;;;;;;;27.13;4.27;;;;;;;5.47;96.87;98882.66;5055186;28;20036;-63
2022/01/09 00:48:46;;;;;;;31.40;5.40;;;;;;;5.47;95.82;98889.75;5056497;28;20114;-63
2022/01/09 00:51:12;;;;;;;33.60;5.23;;;;;;;5.45;95.93;98897.03;5065500;28;20091;-63
2022/01/09 00:53:37;;;;;;;32.47;5.33;;;;;;;5.45;95.79;98902.28;5060630;28;20021;-64
2022/01/09 00:56:02;;;;;;;33.20;5.80;;;;;;;5.47;95.65;98913.44;5065661;28;20109;-63
2022/01/09 00:58:27;;;;;;;32.97;4.83;;;;;;;5.47;95.67;98905.53;5058264;28;20024;-63
2022/01/09 01:00:53;;;;;;;36.10;5.40;;;;;;;5.47;95.56;98927.41;5060211;28;20028;-63
2022/01/09 01:03:19;;;;;;;34.87;6.00;;;;;;;5.47;94.99;98918.72;5064418;28;20028;-63
2022/01/09 01:05:45;;;;;;;28.07;4.60;;;;;;;5.45;94.92;98925.97;5064534;28;20493;-63
2022/01/09 01:08:10;;;;;;;27.90;4.53;;;;;;;5.44;93.21;98945.41;5060796;28;20514;-64
2022/01/09 01:10:35;;;;;;;20.20;4.13;;;;;;;5.41;91.88;98945.78;5062145;28;20547;-64
2022/01/09 01:13:02;;;;;;;26.47;4.63;;;;;;;5.37;92.28;98955.03;5064604;28;20032;-63
2022/01/09 01:15:27;;;;;;;24.97;4.13;;;;;;;5.34;92.41;98948.34;5056008;28;20055;-64
2022/01/09 01:17:52;;;;;;;29.93;5.10;;;;;;;5.36;92.17;98964.75;5053857;28;20056;-63
2022/01/09 01:20:21;;;;;;;30.43;4.20;;;;;;;5.38;92.54;98960.13;5057846;28;20133;-63
2022/01/09 01:22:46;;;;;;;44.13;5.75;;;;;;;5.44;92.66;98971.72;5060023;28;20032;-63
2022/01/09 01:25:12;;;;;;;37.90;5.17;;;;;;;5.44;93.19;98974.34;5058776;28;20028;-63
2022/01/09 01:27:37;;;;;;;47.90;6.37;;;;;;;5.47;93.54;98987.97;5057622;28;20404;-63
2022/01/09 01:30:05;;;;;;;46.23;5.23;;;;;;;5.48;93.52;99000.13;5058602;28;20051;-63
2022/01/09 01:32:30;;;;;;;43.13;5.97;;;;;;;5.48;94.21;99009.84;5061940;28;20017;-63
2022/01/09 01:34:56;;;;;;;48.07;6.03;;;;;;;5.49;94.33;99008.84;5056741;28;20496;-61
2022/01/09 01:37:21;;;;;;;47.30;6.17;;;;;;;5.45;94.27;99011.03;5055133;28;20108;-61
2022/01/09 01:39:47;;;;;;;44.97;6.70;;;;;;;5.50;94.51;99019.22;5062715;28;20045;-61
2022/01/09 01:42:12;;;;;;;49.27;6.50;;;;;;;5.54;93.84;99017.84;5063768;28;20365;-60
2022/01/09 01:44:47;;;;;;;48.03;6.30;;;;;;;5.54;94.14;99025.75;5062562;28;20523;-61
2022/01/09 01:47:19;;;;;;;49.33;6.67;;;;;;;5.59;93.83;99027.84;5064198;28;20021;-60
2022/01/09 01:49:45;;;;;;;41.20;6.43;;;;;;;5.62;94.00;99031.91;5055666;28;20123;-61
2022/01/09 01:52:11;;;;;;;46.53;6.50;;;;;;;5.67;93.34;99042.72;5052398;28;20096;-61
2022/01/09 01:54:39;;;;;;;44.43;5.97;;;;;;;5.68;93.37;99052.25;5058789;28;20296;-61
2022/01/09 01:57:04;;;;;;;39.83;5.97;;;;;;;5.69;93.25;99073.13;5055077;28;20028;-61
2022/01/09 01:59:30;;;;;;;47.07;6.07;;;;;;;5.70;92.72;99060.78;5059113;28;20021;-61
2022/01/09 02:01:55;;;;;;;47.73;5.70;;;;;;;5.70;92.87;99069.50;5059006;28;20275;-61
2022/01/09 02:04:21;;;;;;;43.60;5.83;;;;;;;5.70;92.62;99068.69;5061909;28;20067;-61
2022/01/09 02:06:46;;;;;;;38.20;5.90;;;;;;;5.69;92.87;99078.38;5058690;28;20387;-61
2022/01/09 02:09:12;;;;;;;44.60;6.50;;;;;;;5.67;92.70;99085.66;5057255;28;20056;-61
2022/01/09 02:11:37;;;;;;;45.83;6.67;;;;;;;5.68;92.69;99094.38;5059528;28;20025;-61
2022/01/09 02:14:03;;;;;;;39.30;5.77;;;;;;;5.68;92.75;99094.38;5057549;28;20021;-61
2022/01/09 02:16:28;;;;;;;41.03;6.20;;;;;;;5.69;92.54;99102.09;5052086;28;20075;-61
2022/01/09 02:18:54;;;;;;;49.83;6.10;;;;;;;5.67;92.47;99106.72;5062276;28;20016;-61
2022/01/09 02:21:22;;;;;;;44.17;5.83;;;;;;;5.67;92.38;99116.44;5054003;28;20028;-61
2022/01/09 02:23:48;;;;;;;41.87;6.37;;;;;;;5.65;92.13;99116.63;5057977;28;20384;-61
2022/01/09 02:26:24;;;;;;;32.50;5.17;;;;;;;5.66;92.29;99128.78;5059232;28;20101;-61
2022/01/09 02:28:50;;;;;;;38.80;5.97;;;;;;;5.68;91.69;99145.22;5059751;28;20025;-61
2022/01/09 02:31:16;;;;;;;43.83;7.10;;;;;;;5.70;91.50;99145.03;5056820;28;20126;-61
2022/01/09 02:33:41;;;;;;;38.80;6.00;;;;;;;5.70;91.42;99145.03;5056953;28;20497;-61
2022/01/09 02:36:07;;;;;;;39.03;5.67;;;;;;;5.71;91.50;99144.03;5063441;28;20032;-61
2022/01/09 02:38:32;;;;;;;42.03;6.00;;;;;;;5.71;91.13;99149.31;5057046;28;20017;-62
2022/01/09 02:40:58;;;;;;;48.87;5.90;;;;;;;5.70;91.16;99156.41;5050603;28;20432;-61
2022/01/09 02:43:23;;;;;;;33.00;5.43;;;;;;;5.72;90.65;99158.84;5064564;28;20450;-61
2022/01/09 02:46:14;;;;;;;39.13;6.37;;;;;;;5.68;90.51;99168.13;5064884;28;20027;-61
2022/01/09 02:48:40;;;;;;;36.33;6.17;;;;;;;5.69;90.59;99169.75;5051453;28;20025;-61
2022/01/09 02:51:13;;;;;;;31.70;4.93;;;;;;;5.70;90.04;99182.72;5062658;28;20032;-61
2022/01/09 02:53:40;;;;;;;41.27;6.17;;;;;;;5.67;90.04;99187.53;5055176;28;20387;-61
2022/01/09 02:56:07;;;;;;;35.03;4.83;;;;;;;5.63;90.28;99192.34;5057380;28;20033;-61
2022/01/09 02:58:34;;;;;;;36.43;5.17;;;;;;;5.61;90.01;99202.25;5053285;28;20036;-61
2022/01/09 03:01:00;;;;;;;38.30;5.40;;;;;;;5.62;89.82;99197.81;5057505;28;20029;-61
2022/01/09 03:03:26;;;;;;;31.67;4.73;;;;;;;5.62;89.32;99198.63;5059298;28;20036;-61
2022/01/09 03:05:52;;;;;;;29.47;5.47;;;;;;;5.65;89.22;99202.72;5059602;28;20021;-61
2022/01/09 03:08:17;;;;;;;30.17;5.10;;;;;;;5.62;89.23;99216.22;5055230;28;20048;-61
2022/01/09 03:10:42;;;;;;;35.07;5.20;;;;;;;5.62;89.31;99232.84;5056433;28;20029;-61
2022/01/09 03:13:08;;;;;;;28.90;4.80;;;;;;;5.60;88.87;99226.94;5055894;28;20027;-61
2022/01/09 03:15:34;;;;;;;38.97;5.10;;;;;;;5.55;89.38;99238.03;5056969;28;20029;-61
2022/01/09 03:17:59;;;;;;;30.80;4.40;;;;;;;5.57;88.83;99238.66;5054964;28;20025;-61
2022/01/09 03:20:26;;;;;;;25.63;4.37;;;;;;;5.55;88.92;99247.72;5065961;28;20036;-61
2022/01/09 03:22:54;;;;;;;34.00;4.93;;;;;;;5.54;88.88;99260.09;5060116;28;20492;-61
2022/01/09 03:25:21;;;;;;;32.57;4.87;;;;;;;5.50;88.85;99263.25;5055976;28;20044;-61
2022/01/09 03:27:48;;;;;;;34.33;4.23;;;;;;;5.54;89.25;99267.16;5054739;28;20029;-61
2022/01/09 03:30:13;;;;;;;30.77;4.03;;;;;;;5.51;89.32;99276.22;5058027;28;20043;-61
2022/01/09 03:32:40;;;;;;;31.50;4.50;;;;;;;5.51;88.84;99278.03;5055306;28;20116;-61
2022/01/09 03:35:08;;;;;;;24.27;4.10;;;;;;;5.49;88.87;99270.31;5054785;28;20385;-61
2022/01/09 03:37:34;;;;;;;24.67;4.67;;;;;;;5.48;88.44;99294.16;5055731;28;20029;-61
2022/01/09 03:39:59;;;;;;;29.60;4.27;;;;;;;5.48;88.34;99292.34;5057893;28;20053;-61
2022/01/09 03:42:24;;;;;;;29.87;4.33;;;;;;;5.43;88.20;99302.59;5063030;28;20104;-61
2022/01/09 03:44:50;;;;;;;26.33;4.73;;;;;;;5.41;88.52;99309.03;5055237;28;20021;-61
2022/01/09 03:47:15;;;;;;;23.27;4.43;;;;;;;5.38;88.76;99314.66;5050485;28;20033;-61
2022/01/09 03:49:40;;;;;;;35.63;4.57;;;;;;;5.36;88.28;99316.63;5058808;28;20484;-61
2022/01/09 03:52:06;;;;;;;28.67;4.43;;;;;;;5.33;88.67;99322.25;5050672;28;20025;-61
2022/01/09 03:54:31;;;;;;;27.17;3.97;;;;;;;5.36;88.22;99330.63;5051042;28;20029;-61
2022/01/09 03:56:57;;;;;;;23.20;3.63;;;;;;;5.35;88.10;99341.31;5056910;28;20017;-61
2022/01/09 03:59:23;;;;;;;25.50;3.67;;;;;;;5.40;87.56;99338.97;5058600;28;20059;-61
2022/01/09 04:01:48;;;;;;;22.97;3.30;;;;;;;5.38;87.69;99346.25;5060882;28;20055;-61
2022/01/09 04:04:14;;;;;;;30.17;4.03;;;;;;;5.37;87.01;99355.94;5063714;28;20075;-61
2022/01/09 04:06:45;;;;;;;19.13;3.43;;;;;;;5.34;86.91;99366.00;5059169;28;20021;-61
2022/01/09 04:09:18;;;;;;;29.53;3.80;;;;;;;5.26;86.87;99359.81;5051240;28;20373;-61
2022/01/09 04:11:44;;;;;;;16.93;3.00;;;;;;;5.27;86.61;99365.88;5048966;28;20039;-61
2022/01/09 04:14:09;;;;;;;23.43;3.80;;;;;;;5.28;86.41;99378.88;5055825;28;20021;-61
2022/01/09 04:16:34;;;;;;;19.87;3.63;;;;;;;5.31;85.93;99374.25;5054674;28;20029;-61
2022/01/09 04:19:00;;;;;;;30.93;3.60;;;;;;;5.27;85.75;99386.94;5057341;28;20096;-61
2022/01/09 04:21:25;;;;;;;23.97;3.23;;;;;;;5.22;85.74;99390.09;5056440;28;20036;-61
2022/01/09 04:23:50;;;;;;;18.13;3.13;;;;;;;5.17;85.71;99386.31;5049562;28;20056;-61
2022/01/09 04:26:17;;;;;;;18.23;2.93;;;;;;;5.14;85.56;99398.00;5048420;28;20057;-61
2022/01/09 04:28:43;;;;;;;17.77;3.00;;;;;;;5.09;85.30;99408.22;5056742;28;20116;-61
2022/01/09 04:31:08;;;;;;;24.17;3.47;;;;;;;5.07;85.64;99412.84;5057005;28;20594;-61
2022/01/09 04:33:33;;;;;;;21.67;3.27;;;;;;;5.07;85.65;99415.47;5061053;28;20024;-61
2022/01/09 04:35:59;;;;;;;18.13;3.63;;;;;;;4.97;85.82;99420.13;5063036;28;20520;-61
2022/01/09 04:38:25;;;;;;;20.10;3.60;;;;;;;4.98;85.56;99416.50;5063008;28;20103;-61
2022/01/09 04:40:50;;;;;;;20.57;3.33;;;;;;;4.97;85.67;99430.63;5059169;28;20100;-61
2022/01/09 04:43:16;;;;;;;22.73;3.03;;;;;;;4.90;85.89;99438.38;5057299;28;20021;-62
2022/01/09 04:45:42;;;;;;;23.60;4.00;;;;;;;4.90;86.06;99448.06;5055389;28;20025;-61
2022/01/09 04:48:10;;;;;;;20.33;2.70;;;;;;;4.86;86.27;99452.03;5033475;28;20515;-62
2022/01/09 04:50:37;;;;;;;23.40;3.60;;;;;;;4.85;86.00;99461.72;5055495;28;20029;-61
2022/01/09 04:53:05;;;;;;;22.97;2.73;;;;;;;4.83;86.33;99462.88;5061669;28;20130;-61
2022/01/09 04:55:33;;;;;;;22.25;3.80;;;;;;;4.83;85.98;99468.97;5057860;28;20063;-61
2022/01/09 04:57:58;;;;;;;17.70;3.10;;;;;;;4.79;85.99;99478.19;5058957;28;20028;-61
2022/01/09 05:00:24;;;;;;;22.63;3.60;;;;;;;4.74;86.30;99482.31;5057652;28;20028;-61
2022/01/09 05:02:50;;;;;;;19.47;2.87;;;;;;;4.70;86.24;99494.97;5062298;28;20039;-61
2022/01/09 05:05:15;;;;;;;18.30;3.00;;;;;;;4.68;86.13;99485.59;5068403;28;20156;-61
2022/01/09 05:07:42;;;;;;;14.73;2.97;;;;;;;4.68;85.97;99496.94;5060576;28;20029;-61
2022/01/09 05:10:09;;;;;;;23.07;3.47;;;;;;;4.66;86.01;99497.09;5063229;28;20139;-61
2022/01/09 05:12:35;;;;;;;18.77;3.10;;;;;;;4.65;86.03;99510.41;5063725;28;20021;-61
2022/01/09 05:15:01;;;;;;;20.90;3.03;;;;;;;4.59;86.12;99516.31;5064721;28;20025;-61
2022/01/09 05:17:26;;;;;;;16.13;3.00;;;;;;;4.53;86.07;99538.81;5054374;28;20060;-61
2022/01/09 05:19:53;;;;;;;19.50;3.20;;;;;;;4.55;86.32;99544.75;5052245;28;20061;-61
2022/01/09 05:22:19;;;;;;;23.07;3.40;;;;;;;4.52;86.33;99545.06;5060895;28;20063;-61
2022/01/09 05:24:44;;;;;;;22.50;3.40;;;;;;;4.47;86.28;99552.63;5035610;28;20037;-61
2022/01/09 05:27:09;;;;;;;20.83;3.23;;;;;;;4.49;86.83;99544.59;5054779;28;20131;-61
2022/01/09 05:29:35;;;;;;;25.07;3.50;;;;;;;4.46;86.32;99561.50;5064973;28;20033;-61
2022/01/09 05:32:00;;;;;;;21.80;3.53;;;;;;;4.46;86.83;99561.50;5065681;28;20025;-61
2022/01/09 05:34:25;;;;;;;22.67;3.43;;;;;;;4.41;86.72;99563.81;5059269;28;20423;-61
2022/01/09 05:36:51;;;;;;;16.37;3.07;;;;;;;4.41;86.82;99579.56;5065780;28;20034;-61
2022/01/09 05:39:16;;;;;;;16.73;3.13;;;;;;;4.39;86.64;99576.28;5058767;28;20029;-61
2022/01/09 05:41:43;;;;;;;23.07;3.63;;;;;;;4.40;86.98;99566.59;5057542;28;20419;-61
2022/01/09 05:44:08;;;;;;;14.30;3.10;;;;;;;4.39;86.97;99588.59;5059186;28;20018;-61
2022/01/09 05:46:34;;;;;;;17.67;2.80;;;;;;;4.38;87.19;99587.78;5051447;28;20017;-61
2022/01/09 05:48:59;;;;;;;18.77;3.37;;;;;;;4.39;87.14;99585.97;5056636;28;20119;-61
2022/01/09 05:51:24;;;;;;;14.90;3.20;;;;;;;4.40;86.91;99600.75;5056786;28;20047;-61
2022/01/09 05:53:49;;;;;;;13.43;2.90;;;;;;;4.43;87.32;99603.88;5054000;28;20025;-61
2022/01/09 05:56:15;;;;;;;17.57;3.03;;;;;;;4.42;86.97;99604.06;5054957;28;20040;-61
2022/01/09 05:58:40;;;;;;;18.17;3.67;;;;;;;4.42;86.92;99604.88;5053306;28;20057;-61
2022/01/09 06:01:07;;;;;;;16.83;3.33;;;;;;;4.41;86.93;99600.59;5059616;28;20462;-61
2022/01/09 06:03:32;;;;;;;18.53;2.73;;;;;;;4.43;86.54;99601.25;5057523;28;20021;-61
2022/01/09 06:05:58;;;;;;;17.97;2.97;;;;;;;4.37;86.89;99607.16;5059591;28;20031;-61
2022/01/09 06:08:23;;;;;;;15.87;3.10;;;;;;;4.42;86.77;99611.94;5054424;28;20033;-61
2022/01/09 06:10:49;;;;;;;18.20;2.60;;;;;;;4.42;86.52;99614.56;5058403;28;20024;-61
2022/01/09 06:13:14;;;;;;;15.77;3.00;;;;;;;4.41;86.82;99624.25;5054157;28;20021;-61
2022/01/09 06:15:39;;;;;;;17.47;3.00;;;;;;;4.39;86.68;99620.16;5053989;28;20492;-61
2022/01/09 06:18:05;;;;;;;18.77;3.60;;;;;;;4.35;86.96;99627.53;5066183;28;20025;-61
2022/01/09 06:20:30;;;;;;;17.67;3.10;;;;;;;4.31;87.05;99632.25;5063168;28;20017;-61
2022/01/09 06:22:55;;;;;;;20.27;3.20;;;;;;;4.33;86.99;99642.59;5055300;28;20029;-61
2022/01/09 06:25:21;;;;;;;16.00;2.97;;;;;;;4.37;87.42;99635.25;5058327;28;20036;-61
2022/01/09 06:27:47;;;;;;;15.17;3.03;;;;;;;4.37;87.39;99641.34;5056633;28;20499;-61
2022/01/09 06:30:12;;;;;;;16.40;4.00;;;;;;;4.38;87.42;99642.97;5057267;28;20123;-61
2022/01/09 06:32:38;;;;;;;15.20;2.93;;;;;;;4.34;87.49;99655.63;5058849;28;20038;-61
2022/01/09 06:35:04;;;;;;;16.70;4.67;;;;;;;4.39;88.02;99667.47;5059596;28;20055;-61
2022/01/09 06:37:29;;;;;;;18.30;3.27;;;;;;;4.45;87.77;99670.25;5065171;28;20035;-61
2022/01/09 06:39:55;;;;;;;16.00;2.93;;;;;;;4.48;87.30;99672.56;5061186;28;20020;-61
2022/01/09 06:42:20;;;;;;;13.63;3.43;;;;;;;4.44;86.87;99668.63;5056531;28;20020;-61
2022/01/09 06:44:45;;;;;;;17.20;2.83;;;;;;;4.37;86.96;99688.63;5061700;28;20031;-61
2022/01/09 06:47:10;;;;;;;12.37;2.83;;;;;;;4.31;87.12;99684.00;5055759;28;20478;-61
2022/01/09 06:49:36;;;;;;;18.20;2.97;;;;;;;4.29;86.90;99693.84;5041100;28;20036;-61
2022/01/09 06:52:03;;;;;;;16.60;2.90;;;;;;;4.29;87.24;99686.78;5050387;28;20108;-61
2022/01/09 06:54:28;;;;;;;18.33;3.80;;;;;;;4.29;87.92;99688.59;5052095;28;20064;-61
2022/01/09 06:56:54;;;;;;;13.87;2.90;;;;;;;4.27;88.21;99688.75;5059617;28;20037;-61
2022/01/09 06:59:19;;;;;;;22.03;4.30;;;;;;;4.27;88.39;99699.25;5055770;28;20435;-61
2022/01/09 07:01:44;;;;;;;17.77;3.27;;;;;;;4.25;88.61;99708.28;5057780;28;20029;-61
2022/01/09 07:04:10;;;;;;;20.53;3.17;;;;;;;4.25;88.96;99695.16;5055627;28;20021;-61
2022/01/09 07:06:35;;;;;;;24.00;3.30;;;;;;;4.29;89.16;99715.69;5058507;28;20028;-61
2022/01/09 07:09:01;;;;;;;14.80;3.03;;;;;;;4.31;89.24;99710.28;5050676;28;20025;-61
2022/01/09 07:11:26;;;;;;;18.20;3.33;;;;;;;4.30;89.39;99719.13;5068068;28;20028;-61
2022/01/09 07:13:51;;;;;;;20.07;3.53;;;;;;;4.32;89.24;99719.81;5062242;28;20028;-61
2022/01/09 07:16:17;;;;;;;18.00;3.20;;;;;;;4.34;89.29;99725.75;5060225;28;20074;-61
2022/01/09 07:18:42;;;;;;;19.00;3.50;;;;;;;4.37;89.45;99735.13;5052975;28;20021;-61
2022/01/09 07:21:07;;;;;;;20.63;3.57;;;;;;;4.35;89.17;99727.41;5057386;28;20024;-61
2022/01/09 07:23:32;;;;;;;21.93;3.37;;;;;;;4.40;89.33;99740.88;5056334;28;20420;-61
2022/01/09 07:25:58;;;;;;;15.70;2.77;;;;;;;4.39;89.04;99739.25;5060574;28;20050;-61
2022/01/09 07:28:23;;;;;;;15.83;2.93;;;;;;;4.34;89.05;99744.16;5057293;28;20032;-61
2022/01/09 07:30:49;;;;;;;19.80;3.83;;;;;;;4.33;89.15;99745.09;5056746;28;20030;-61
2022/01/09 07:33:14;;;;;;;17.30;3.50;;;;;;;4.33;88.90;99751.19;5052608;28;20074;-61
2022/01/09 07:35:40;;;;;;;24.30;3.30;;;;;;;4.32;89.32;99762.69;5058590;28;20025;-61
2022/01/09 07:38:05;;;;;;;20.90;3.50;;;;;;;4.29;89.21;99770.88;5053765;28;20025;-60
2022/01/09 07:40:30;;;;;;;16.97;2.90;;;;;;;4.27;89.22;99758.88;5054287;28;20106;-60
2022/01/09 07:42:56;;;;;;;14.70;2.87;;;;;;;4.30;88.72;99767.28;5052211;28;20049;-61
2022/01/09 07:45:24;;;;;;;16.03;2.70;;;;;;;4.29;88.75;99764.78;5059161;28;20032;-60
2022/01/09 07:47:50;;;;;;;16.20;3.10;;;;;;;4.31;88.27;99770.72;5055480;28;20028;-60
2022/01/09 07:50:16;;;;;;;14.23;2.83;;;;;;;4.25;88.16;99773.97;5055283;28;20039;-60
2022/01/09 07:52:41;;;;;;;16.10;2.50;;;;;;;4.21;88.24;99778.72;5055695;28;20028;-62
2022/01/09 07:55:08;;;;;;;16.27;2.80;;;;;;;4.21;88.20;99783.16;5059369;28;20517;-62
2022/01/09 07:57:34;;;;;;;13.67;2.60;;;;;;;4.17;88.47;99781.81;5054134;28;20025;-63
2022/01/09 08:00:03;;;;;;;15.73;2.80;;;;;;;4.14;88.87;99782.13;5055022;28;20049;-63
2022/01/09 08:02:29;;;;;;;19.70;2.80;;;;;;;4.07;88.56;99791.63;5055770;28;20032;-63
2022/01/09 08:04:54;;;;;;;13.00;2.50;;;;;;;4.00;88.57;99791.41;5062429;28;20033;-62
2022/01/09 08:07:20;;;;;;;14.53;2.67;;;;;;;3.95;88.94;99794.50;5056808;28;20033;-63
2022/01/09 08:09:46;;;;;;;16.63;3.30;;;;;;;3.86;89.12;99805.91;5063423;28;20362;-63
2022/01/09 08:12:14;;;;;;;20.20;3.03;;;;;;;3.77;89.39;99801.59;5055565;28;20389;-63
2022/01/09 08:14:40;;;;;;;18.53;2.90;;;;;;;3.72;89.61;99809.91;5063362;28;20590;-63
2022/01/09 08:17:06;;;;;;;18.53;4.13;;;;;;;3.68;89.65;99816.44;5064234;28;20471;-63
2022/01/09 08:19:31;;;;;;;22.40;3.63;;;;;;;3.70;90.24;99818.91;5070751;28;20082;-63
2022/01/09 08:21:57;;;;;;;16.67;3.10;;;;;;;3.76;90.33;99833.22;5067300;28;20504;-63
2022/01/09 08:24:22;;;;;;;16.17;3.30;;;;;;;3.81;90.32;99834.44;5051994;28;20025;-63
2022/01/09 08:26:48;;;;;;;18.37;3.23;;;;;;;3.87;90.22;99830.38;5056295;28;20032;-63
2022/01/09 08:29:14;;;;;;;17.23;3.07;;;;;;;3.90;90.06;99833.53;5053163;28;20043;-63
2022/01/09 08:31:40;;;;;;;17.73;3.07;;;;;;;3.92;90.07;99834.19;5062768;28;20033;-63
2022/01/09 08:34:05;;;;;;;14.13;3.07;;;;;;;3.97;90.24;99838.97;5058448;28;20434;-63
2022/01/09 08:36:32;;;;;;;21.80;3.50;;;;;;;4.03;90.21;99841.81;5054934;28;20036;-62
2022/01/09 08:38:57;;;;;;;23.07;3.07;;;;;;;4.13;90.38;99840.91;5054169;28;20108;-62
2022/01/09 08:41:22;;;;;;;16.10;3.30;;;;;;;4.18;90.22;99846.53;5056181;28;20131;-63
2022/01/09 08:43:48;;;;;;;24.17;3.50;;;;;;;4.21;89.75;99849.69;5063781;28;20031;-62
2022/01/09 08:46:14;;;;;;;13.00;2.73;;;;;;;4.21;90.39;99846.22;5059053;28;20048;-63
2022/01/09 08:48:39;;;;;;;18.20;3.00;;;;;;;4.14;89.81;99853.06;5051023;28;20576;-63
2022/01/09 08:51:06;;;;;;;17.97;2.87;;;;;;;4.08;89.90;99864.19;5059815;28;20111;-62
2022/01/09 08:53:32;;;;;;;20.30;2.60;;;;;;;4.06;89.70;99858.28;5053900;28;20605;-62
2022/01/09 08:55:57;;;;;;;16.47;2.73;;;;;;;4.02;89.63;99869.06;5062726;28;20056;-62
2022/01/09 08:58:23;;;;;;;15.10;3.00;;;;;;;3.98;89.93;99870.34;5062386;28;20032;-62
2022/01/09 09:00:50;;;;;;;21.23;3.13;;;;;;;4.00;90.18;99885.97;5066645;28;20476;-63
2022/01/09 09:03:15;;;;;;;16.83;3.00;;;;;;;4.05;90.10;99878.47;5060570;28;20408;-62
2022/01/09 09:05:41;;;;;;;15.13;2.80;;;;;;;4.09;90.19;99890.31;5064989;28;20021;-62
2022/01/09 09:08:06;;;;;;;18.17;3.47;;;;;;;4.12;90.74;99884.75;5075659;28;20025;-62
2022/01/09 09:10:31;;;;;;;16.27;3.30;;;;;;;4.13;90.31;99891.66;5064735;28;20219;-63
2022/01/09 09:12:56;;;;;;;19.83;3.13;;;;;;;4.16;90.81;99901.88;5062682;28;20030;-62
2022/01/09 09:15:22;;;;;;;23.93;4.03;;;;;;;4.23;90.84;99912.59;5060970;28;20043;-62
2022/01/09 09:17:48;;;;;;;19.73;3.60;;;;;;;4.27;90.56;99908.66;5063298;28;20031;-63
2022/01/09 09:20:13;;;;;;;19.97;3.17;;;;;;;4.28;90.73;99912.94;5060505;28;20037;-63
2022/01/09 09:22:39;;;;;;;17.67;3.20;;;;;;;4.31;90.70;99917.91;5054485;28;20048;-62
2022/01/09 09:25:05;;;;;;;24.80;3.33;;;;;;;4.34;90.31;99920.25;5060475;28;20529;-62
2022/01/09 09:27:32;;;;;;;17.03;3.00;;;;;;;4.30;90.49;99916.25;5057312;28;20413;-62
2022/01/09 09:29:59;;;;;;;14.87;2.87;;;;;;;4.37;90.16;99927.81;5051353;28;20431;-63
2022/01/09 09:32:25;;;;;;;18.57;3.27;;;;;;;4.40;89.77;99924.88;5058455;28;20260;-62
2022/01/09 09:34:50;;;;;;;15.27;2.60;;;;;;;4.45;89.94;99941.03;5058806;28;20508;-62
2022/01/09 09:37:16;;;;;;;19.90;3.10;;;;;;;4.51;89.56;99942.19;5057698;28;20400;-62
2022/01/09 09:39:41;;;;;;;13.63;2.97;;;;;;;4.55;89.86;99938.28;5057269;28;20460;-63
2022/01/09 09:42:08;;;;;;;18.17;2.80;;;;;;;4.54;89.98;99947.97;5059878;28;20128;-63
2022/01/09 09:44:36;;;;;;;23.57;3.17;;;;;;;4.57;89.84;99942.41;5058371;28;20043;-62
2022/01/09 09:47:01;;;;;;;17.47;3.00;;;;;;;4.58;89.88;99951.13;5057871;28;20028;-63
2022/01/09 09:49:26;;;;;;;17.03;3.27;;;;;;;4.60;89.95;99957.88;5051815;28;20085;-62
2022/01/09 09:51:52;;;;;;;15.47;3.33;;;;;;;4.62;89.93;99958.53;5058945;28;20502;-63
2022/01/09 09:54:17;;;;;;;20.67;2.67;;;;;;;4.62;89.58;99949.81;5059633;28;20032;-63
2022/01/09 09:56:42;;;;;;;21.03;3.23;;;;;;;4.67;90.04;99958.09;5056806;28;20025;-63
2022/01/09 09:59:08;;;;;;;17.77;3.10;;;;;;;4.68;89.52;99954.50;5055271;28;20049;-64
2022/01/09 10:01:35;;;;;;;16.23;2.67;;;;;;;4.72;89.64;99965.53;5058153;28;20514;-63
2022/01/09 10:04:06;;;;;;;20.30;3.57;;;;;;;4.75;89.13;99973.94;5054683;28;20028;-63
2022/01/09 10:06:42;;;;;;;20.40;3.53;;;;;;;4.72;88.87;99976.03;5058209;28;20029;-63
2022/01/09 10:09:29;;;;;;;12.77;2.90;;;;;;;4.74;88.07;99982.81;5053913;28;20025;-63
2022/01/09 10:11:55;;;;;;;18.70;2.77;;;;;;;4.74;88.17;99979.34;5064361;28;20474;-63
2022/01/09 10:14:22;;;;;;;13.70;2.97;;;;;;;4.73;88.08;99980.31;5060443;28;20032;-63
2022/01/09 10:17:16;;;;;;;25.43;3.37;;;;;;;4.72;88.38;99982.13;5057079;28;20032;-63
2022/01/09 10:19:48;;;;;;;22.97;3.37;;;;;;;4.62;88.86;99982.19;5053563;28;20114;-63
2022/01/09 10:22:36;;;;;;;17.50;5.23;;;;;;;4.58;89.32;99982.66;5055672;28;20033;-63
2022/01/09 10:25:20;;;;;;;18.13;3.40;;;;;;;4.59;89.55;99993.03;5056256;28;20049;-62
2022/01/09 10:27:46;;;;;;;19.77;3.27;;;;;;;4.61;89.58;99985.81;5054424;28;20039;-61
2022/01/09 10:30:12;;;;;;;19.77;2.93;;;;;;;4.64;89.86;99998.69;5056133;28;20039;-61
2022/01/09 10:32:38;;;;;;;18.07;2.80;;;;;;;4.63;89.75;99993.59;5063019;28;20079;-62
2022/01/09 10:35:04;;;;;;;21.93;3.00;;;;;;;4.64;89.93;99993.44;5056024;28;20101;-62
2022/01/09 10:37:30;;;;;;;21.07;3.13;;;;;;;4.59;90.08;100000.91;5055805;28;20032;-61
2022/01/09 10:39:57;;;;;;;23.10;3.67;;;;;;;4.56;90.48;99982.81;5051990;28;20024;-61
2022/01/09 10:42:23;;;;;;;23.60;3.23;;;;;;;4.56;90.30;100000.41;5059904;28;20113;-61
2022/01/09 10:44:48;;;;;;;22.63;2.80;;;;;;;4.56;90.42;100005.66;5058214;28;20060;-62
2022/01/09 10:47:16;;;;;;;17.70;2.97;;;;;;;4.58;90.59;99996.63;5041498;28;20037;-61
2022/01/09 10:49:47;;;;;;;18.70;3.27;;;;;;;4.63;90.45;100010.19;5055162;28;20033;-61
2022/01/09 10:52:27;;;;;;;27.33;4.10;;;;;;;4.63;90.92;100014.63;5053998;28;20488;-61
2022/01/09 10:54:55;;;;;;;21.83;3.30;;;;;;;4.78;89.73;100028.03;5057619;28;20032;-61
2022/01/09 10:57:29;;;;;;;23.10;3.83;;;;;;;4.88;89.87;100018.22;5057638;28;20056;-61
2022/01/09 11:00:08;;;;;;;17.67;3.90;;;;;;;4.89;89.69;100014.63;5060951;28;20029;-61
2022/01/09 11:02:34;;;;;;;23.42;3.80;;;;;;;4.94;89.72;100010.56;5057899;28;20748;-62
2022/01/09 11:04:59;;;;;;;20.50;3.40;;;;;;;4.94;89.81;100007.09;5056347;28;20111;-61
2022/01/09 11:07:25;;;;;;;20.67;4.00;;;;;;;5.00;90.46;100011.75;5054725;28;20190;-61
2022/01/09 11:09:51;;;;;;;20.20;3.57;;;;;;;5.07;90.10;100012.75;5053761;28;20025;-61
2022/01/09 11:12:19;;;;;;;19.87;3.53;;;;;;;5.12;90.22;100020.19;5061120;28;20072;-61
2022/01/09 11:14:45;;;;;;;20.37;3.60;;;;;;;5.20;90.28;100026.34;5054810;28;20817;-61
2022/01/09 11:17:11;;;;;;;20.23;3.40;;;;;;;5.31;90.34;100019.97;5051666;28;20035;-61
2022/01/09 11:19:37;;;;;;;23.77;3.63;;;;;;;5.45;90.19;100027.28;5056309;28;20020;-61
2022/01/09 11:22:05;;;;;;;21.40;3.97;;;;;;;5.51;90.00;100028.47;5055912;28;20501;-61
2022/01/09 11:25:02;;;;;;;21.47;3.20;;;;;;;5.62;90.02;100033.44;5056213;28;20051;-61
2022/01/09 11:27:49;;;;;;;22.53;3.30;;;;;;;5.76;89.46;100040.75;5063162;28;20028;-62
2022/01/09 11:30:25;;;;;;;16.93;2.73;;;;;;;5.81;88.59;100038.47;5052567;28;20123;-62